createdAt,value
2018-05-10T00:01:25.933Z,61.07
2018-05-10T00:03:54.135Z,58.47
2018-05-10T00:06:21.615Z,55.63
2018-05-10T00:08:49.072Z,54.93
2018-05-10T00:11:16.540Z,54.53
2018-05-10T00:13:43.977Z,56.23
2018-05-10T00:16:11.441Z,57.63
2018-05-10T00:18:38.899Z,57.07
2018-05-10T00:21:06.341Z,53.20
2018-05-10T00:23:33.802Z,53.13
2018-05-10T00:26:01.243Z,53.63
2018-05-10T00:28:28.674Z,51.97
2018-05-10T00:30:56.885Z,52.07
2018-05-10T00:33:24.322Z,54.40
2018-05-10T00:35:51.775Z,50.63
2018-05-10T00:38:19.269Z,46.97
2018-05-10T00:40:46.723Z,49.40
2018-05-10T00:43:14.189Z,49.87
2018-05-10T00:45:41.625Z,49.87
2018-05-10T00:48:09.075Z,43.57
2018-05-10T00:50:36.546Z,43.30
2018-05-10T00:53:04.009Z,44.80
2018-05-10T00:55:31.441Z,49.33
2018-05-10T00:57:58.927Z,45.37
2018-05-10T01:00:26.487Z,41.97
2018-05-10T01:02:54.031Z,39.43
2018-05-10T01:05:21.505Z,41.57
2018-05-10T01:07:48.944Z,36.37
2018-05-10T01:10:16.389Z,33.23
2018-05-10T01:12:43.841Z,35.63
2018-05-10T01:15:11.333Z,34.40
2018-05-10T01:17:38.773Z,34.17
2018-05-10T01:20:06.232Z,32.70
2018-05-10T01:22:33.671Z,36.50
2018-05-10T01:25:01.115Z,32.97
2018-05-10T01:27:29.319Z,36.83
2018-05-10T01:29:56.776Z,32.87
2018-05-10T01:32:24.255Z,31.30
2018-05-10T01:35:03.701Z,30.93
2018-05-10T01:37:31.147Z,33.80
2018-05-10T01:39:58.590Z,30.90
2018-05-10T01:42:26.110Z,32.93
2018-05-10T01:44:53.467Z,34.07
2018-05-10T01:47:21.680Z,34.83
2018-05-10T01:49:49.155Z,34.30
2018-05-10T01:52:16.582Z,29.03
2018-05-10T01:54:44.037Z,29.77
2018-05-10T01:57:11.472Z,25.63
2018-05-10T01:59:39.686Z,27.43
2018-05-10T02:02:07.158Z,27.00
2018-05-10T02:04:34.619Z,28.83
2018-05-10T02:07:02.080Z,28.47
2018-05-10T02:09:29.539Z,27.87
2018-05-10T02:11:56.974Z,27.60
2018-05-10T02:14:24.561Z,31.33
2018-05-10T02:16:51.991Z,25.73
2018-05-10T02:19:19.439Z,31.03
2018-05-10T02:21:46.915Z,28.87
2018-05-10T02:24:14.359Z,28.13
2018-05-10T02:26:41.842Z,28.40
2018-05-10T02:29:09.391Z,28.30
2018-05-10T02:31:36.858Z,25.57
2018-05-10T02:34:04.316Z,28.98
2018-05-10T02:36:31.892Z,26.17
2018-05-10T02:38:59.312Z,27.10
2018-05-10T02:41:26.771Z,27.77
2018-05-10T02:43:54.229Z,25.17
2018-05-10T02:46:21.687Z,25.17
2018-05-10T02:48:49.161Z,24.10
2018-05-10T02:51:16.912Z,24.10
2018-05-10T02:53:44.375Z,23.77
2018-05-10T02:56:11.827Z,27.87
2018-05-10T02:58:39.285Z,26.13
2018-05-10T03:01:06.733Z,25.53
2018-05-10T03:03:34.181Z,24.83
2018-05-10T03:06:01.699Z,24.93
2018-05-10T03:08:29.111Z,25.60
2018-05-10T03:10:56.543Z,26.13
2018-05-10T03:13:23.986Z,26.80
2018-05-10T03:15:52.195Z,30.63
2018-05-10T03:18:19.631Z,29.63
2018-05-10T03:20:47.100Z,28.40
2018-05-10T03:23:14.536Z,31.87
2018-05-10T03:25:42.817Z,36.50
2018-05-10T03:28:10.309Z,34.90
2018-05-10T03:30:37.743Z,33.95
2018-05-10T03:33:05.179Z,32.50
2018-05-10T03:35:33.400Z,38.17
2018-05-10T03:38:00.832Z,34.87
2018-05-10T03:40:28.337Z,35.70
2018-05-10T03:42:55.766Z,38.97
2018-05-10T03:45:23.219Z,33.07
2018-05-10T03:47:50.679Z,33.90
2018-05-10T03:50:18.132Z,36.50
2018-05-10T03:52:45.575Z,36.50
2018-05-10T03:55:13.041Z,35.63
2018-05-10T03:57:40.511Z,37.97
2018-05-10T04:00:08.774Z,32.57
2018-05-10T04:02:57.856Z,34.40
2018-05-10T04:05:37.292Z,31.53
2018-05-10T04:08:16.716Z,35.03
2018-05-10T04:11:08.883Z,32.83
2018-05-10T04:13:37.166Z,35.13
2018-05-10T04:16:04.663Z,37.63
2018-05-10T04:18:32.150Z,33.57
2018-05-10T04:20:59.831Z,33.50
2018-05-10T04:23:27.274Z,33.83
2018-05-10T04:25:54.719Z,35.78
2018-05-10T04:28:22.158Z,38.23
2018-05-10T04:30:49.612Z,32.72
2018-05-10T04:33:17.817Z,31.43
2018-05-10T04:35:45.359Z,29.30
2018-05-10T04:38:12.727Z,29.77
2018-05-10T04:40:40.181Z,30.40
2018-05-10T04:43:07.640Z,26.30
2018-05-10T04:45:35.092Z,30.43
2018-05-10T04:48:02.534Z,26.67
2018-05-10T04:50:30.730Z,32.07
2018-05-10T04:52:58.175Z,34.00
2018-05-10T04:55:25.621Z,26.00
2018-05-10T04:57:53.821Z,29.03
2018-05-10T05:00:21.259Z,33.40
2018-05-10T05:02:48.686Z,27.00
2018-05-10T05:05:16.131Z,32.00
2018-05-10T05:07:43.595Z,31.30
2018-05-10T05:10:11.839Z,26.20
2018-05-10T05:12:39.296Z,35.30
2018-05-10T05:15:06.755Z,32.77
2018-05-10T05:17:34.200Z,34.73
2018-05-10T05:20:01.691Z,33.50
2018-05-10T05:22:29.231Z,31.13
2018-05-10T05:24:56.695Z,32.23
2018-05-10T05:27:24.148Z,32.97
2018-05-10T05:29:51.612Z,29.58
2018-05-10T05:32:19.832Z,32.13
2018-05-10T05:34:47.296Z,28.13
2018-05-10T05:37:15.491Z,25.27
2018-05-10T05:39:42.938Z,25.37
2018-05-10T05:42:10.383Z,28.70
2018-05-10T05:44:37.811Z,24.53
2018-05-10T05:47:05.257Z,23.37
2018-05-10T05:49:32.805Z,23.60
2018-05-10T05:52:01.004Z,22.83
2018-05-10T05:54:28.440Z,24.13
2018-05-10T05:56:55.902Z,26.80
2018-05-10T05:59:23.356Z,22.60
2018-05-10T06:01:50.799Z,24.97
2018-05-10T06:04:18.354Z,20.97
2018-05-10T06:06:45.822Z,15.87
2018-05-10T06:09:13.253Z,20.50
2018-05-10T06:11:40.703Z,25.33
2018-05-10T06:14:08.204Z,21.40
2018-05-10T06:16:35.749Z,24.13
2018-05-10T06:19:03.203Z,27.43
2018-05-10T06:21:30.628Z,25.50
2018-05-10T06:23:58.720Z,16.97
2018-05-10T06:26:26.196Z,14.33
2018-05-10T06:28:53.652Z,16.37
2018-05-10T06:31:21.090Z,17.62
2018-05-10T06:33:48.523Z,15.30
2018-05-10T06:36:16.012Z,17.08
2018-05-10T06:38:43.471Z,13.97
2018-05-10T06:41:10.909Z,18.07
2018-05-10T06:43:38.344Z,13.23
2018-05-10T06:46:06.551Z,20.13
2018-05-10T06:48:33.992Z,21.43
2018-05-10T06:51:01.476Z,17.47
2018-05-10T06:53:28.909Z,20.57
2018-05-10T06:55:56.365Z,12.00
2018-05-10T06:58:24.845Z,14.00
2018-05-10T07:00:52.332Z,18.50
2018-05-10T07:03:19.779Z,19.17
2018-05-10T07:05:47.245Z,18.47
2018-05-10T07:08:14.730Z,22.40
2018-05-10T07:10:42.927Z,16.50
2018-05-10T07:13:10.376Z,18.67
2018-05-10T07:15:37.942Z,24.60
2018-05-10T07:18:05.385Z,17.33
2018-05-10T07:20:32.859Z,18.37
2018-05-10T07:23:00.303Z,18.40
2018-05-10T07:25:27.823Z,25.90
2018-05-10T07:27:55.227Z,17.57
2018-05-10T07:30:22.671Z,20.77
2018-05-10T07:32:50.180Z,19.90
2018-05-10T07:35:17.606Z,15.03
2018-05-10T07:37:45.108Z,21.80
2018-05-10T07:40:12.507Z,21.87
2018-05-10T07:42:39.940Z,14.73
2018-05-10T07:45:07.380Z,23.83
2018-05-10T07:47:35.586Z,23.27
2018-05-10T07:50:03.063Z,19.80
2018-05-10T07:52:30.510Z,21.20
2018-05-10T07:54:57.972Z,19.60
2018-05-10T07:57:25.430Z,21.33
2018-05-10T07:59:52.935Z,24.07
2018-05-10T08:02:20.459Z,18.27
2018-05-10T08:04:47.838Z,24.60
2018-05-10T08:07:15.279Z,26.63
2018-05-10T08:09:42.719Z,27.53
2018-05-10T08:12:10.167Z,28.50
2018-05-10T08:14:37.629Z,21.13
2018-05-10T08:17:05.242Z,32.27
2018-05-10T08:19:32.719Z,24.40
2018-05-10T08:22:00.155Z,27.20
2018-05-10T08:24:28.364Z,30.17
2018-05-10T08:26:55.848Z,30.33
2018-05-10T08:29:23.294Z,33.53
2018-05-10T08:31:50.741Z,33.90
2018-05-10T08:34:18.185Z,39.07
2018-05-10T08:36:45.705Z,42.47
2018-05-10T08:39:13.099Z,41.80
2018-05-10T08:41:40.594Z,40.83
2018-05-10T08:44:08.037Z,43.77
2018-05-10T08:46:35.476Z,39.57
2018-05-10T08:49:02.959Z,43.83
2018-05-10T08:51:30.492Z,40.97
2018-05-10T08:53:57.839Z,45.47
2018-05-10T08:56:25.339Z,39.53
2018-05-10T08:58:52.802Z,37.58
2018-05-10T09:01:20.351Z,42.67
2018-05-10T09:03:47.901Z,37.33
2018-05-10T09:06:15.349Z,35.97
2018-05-10T09:08:42.816Z,37.43
2018-05-10T09:11:10.283Z,40.30
2018-05-10T09:13:37.739Z,37.50
2018-05-10T09:16:05.187Z,39.97
2018-05-10T09:18:32.651Z,43.27
2018-05-10T09:21:00.173Z,42.33
2018-05-10T09:23:28.433Z,39.57
2018-05-10T09:25:55.903Z,43.90
2018-05-10T09:28:23.419Z,38.23
2018-05-10T09:30:50.975Z,46.07
2018-05-10T09:33:18.423Z,46.23
2018-05-10T09:35:45.944Z,46.57
2018-05-10T09:38:13.380Z,44.37
2018-05-10T09:40:41.707Z,44.63
2018-05-10T09:43:09.169Z,40.70
2018-05-10T09:45:36.599Z,43.17
2018-05-10T09:48:04.034Z,40.07
2018-05-10T09:50:32.535Z,40.70
2018-05-10T09:52:59.978Z,43.33
2018-05-10T09:55:27.442Z,46.75
2018-05-10T09:57:54.891Z,42.97
2018-05-10T10:00:28.147Z,44.60
2018-05-10T10:02:55.590Z,47.23
2018-05-10T10:05:23.872Z,41.80
2018-05-10T10:07:51.783Z,44.40
2018-05-10T10:10:19.235Z,43.17
2018-05-10T10:12:46.683Z,45.13
2018-05-10T10:15:14.135Z,48.10
2018-05-10T10:17:41.607Z,44.83
2018-05-10T10:20:09.059Z,47.43
2018-05-10T10:22:36.520Z,42.40
2018-05-10T10:25:04.060Z,49.60
2018-05-10T10:27:31.478Z,38.50
2018-05-10T10:29:59.694Z,42.37
2018-05-10T10:32:27.264Z,40.03
2018-05-10T10:34:54.667Z,46.00
2018-05-10T10:37:22.867Z,46.20
2018-05-10T10:39:50.359Z,39.30
2018-05-10T10:42:17.815Z,40.20
2018-05-10T10:44:45.375Z,44.57
2018-05-10T10:47:12.821Z,40.93
2018-05-10T10:49:40.284Z,35.33
2018-05-10T10:52:07.739Z,39.10
2018-05-10T10:54:35.294Z,37.80
2018-05-10T10:57:02.767Z,41.08
2018-05-10T10:59:30.212Z,40.93
2018-05-10T11:01:57.725Z,31.87
2018-05-10T11:04:25.106Z,34.17
2018-05-10T11:06:52.556Z,31.90
2018-05-10T11:09:19.995Z,29.77
2018-05-10T11:11:48.202Z,35.07
2018-05-10T11:14:15.644Z,30.13
2018-05-10T11:16:43.891Z,19.70
2018-05-10T11:19:12.116Z,26.60
2018-05-10T11:21:39.591Z,23.13
2018-05-10T11:24:07.065Z,28.20
2018-05-10T11:26:34.511Z,28.67
2018-05-10T11:29:02.057Z,24.83
2018-05-10T11:31:29.499Z,25.33
2018-05-10T11:33:56.985Z,22.13
2018-05-10T11:36:24.431Z,22.27
2018-05-10T11:38:51.875Z,25.63
2018-05-10T11:41:19.347Z,22.42
2018-05-10T11:43:46.801Z,25.97
2018-05-10T11:46:14.246Z,31.95
2018-05-10T11:48:41.733Z,38.92
2018-05-10T11:51:09.172Z,37.63
2018-05-10T11:53:36.620Z,36.33
2018-05-10T11:56:04.087Z,32.30
2018-05-10T11:58:31.533Z,33.80
2018-05-10T12:00:58.988Z,35.63
2018-05-10T12:03:26.515Z,36.83
2018-05-10T12:05:54.727Z,34.83
2018-05-10T12:08:22.199Z,36.27
2018-05-10T12:10:49.667Z,42.63
2018-05-10T12:13:17.107Z,36.37
2018-05-10T12:15:44.583Z,38.97
2018-05-10T12:18:12.020Z,37.88
2018-05-10T12:20:39.473Z,39.90
2018-05-10T12:23:06.919Z,38.33
2018-05-10T12:25:34.402Z,49.25
2018-05-10T12:28:01.807Z,40.85
2018-05-10T12:30:30.084Z,40.15
2018-05-10T12:32:57.472Z,35.88
2018-05-10T12:35:24.979Z,41.30
2018-05-10T12:37:52.400Z,35.30
2018-05-10T12:40:19.848Z,36.67
2018-05-10T12:42:47.310Z,29.05
2018-05-10T12:45:14.751Z,34.45
2018-05-10T12:47:42.203Z,28.42
2018-05-10T12:50:09.675Z,27.70
2018-05-10T12:52:37.142Z,24.98
2018-05-10T12:55:04.599Z,25.25
2018-05-10T12:57:32.053Z,23.57
2018-05-10T12:59:59.620Z,27.08
2018-05-10T13:02:27.060Z,21.73
2018-05-10T13:04:54.547Z,21.80
2018-05-10T13:07:22.091Z,24.42
2018-05-10T13:09:49.577Z,22.63
2018-05-10T13:12:17.041Z,25.73
2018-05-10T13:14:44.480Z,22.37
2018-05-10T13:17:11.923Z,21.60
2018-05-10T13:19:39.371Z,23.17
2018-05-10T13:22:06.807Z,22.65
2018-05-10T13:24:34.251Z,28.27
2018-05-10T13:27:02.467Z,25.88
2018-05-10T13:29:29.931Z,32.05
2018-05-10T13:31:57.393Z,27.45
2018-05-10T13:34:24.856Z,24.12
2018-05-10T13:36:52.291Z,22.73
2018-05-10T13:39:19.729Z,14.52
2018-05-10T13:41:47.200Z,14.15
2018-05-10T13:44:14.675Z,15.75
2018-05-10T13:46:42.119Z,10.25
2018-05-10T13:49:09.571Z,9.52
2018-05-10T13:51:37.013Z,10.38
2018-05-10T13:54:04.440Z,17.45
2018-05-10T13:56:31.951Z,12.57
2018-05-10T13:58:59.441Z,7.28
2018-05-10T14:01:26.879Z,11.73
2018-05-10T14:03:54.327Z,9.05
2018-05-10T14:06:21.795Z,7.60
2018-05-10T14:08:49.245Z,6.75
2018-05-10T14:11:16.689Z,4.68
2018-05-10T14:13:44.171Z,3.83
2018-05-10T14:16:11.652Z,7.72
2018-05-10T14:18:39.210Z,6.07
2018-05-10T14:21:06.667Z,5.03
2018-05-10T14:23:34.104Z,4.83
2018-05-10T14:26:01.550Z,3.87
2018-05-10T14:28:28.998Z,8.43
2018-05-10T14:30:56.415Z,4.13
2018-05-10T14:33:23.931Z,6.05
2018-05-10T14:35:51.479Z,4.57
2018-05-10T14:38:18.855Z,9.03
2018-05-10T14:40:46.284Z,5.07
2018-05-10T14:43:13.857Z,5.17
2018-05-10T14:45:41.275Z,5.45
2018-05-10T14:48:09.491Z,5.62
2018-05-10T14:50:36.951Z,4.37
2018-05-10T14:53:04.458Z,9.00
2018-05-10T14:55:31.916Z,6.45
2018-05-10T14:57:59.386Z,3.10
2018-05-10T15:00:27.592Z,4.57
2018-05-10T15:02:55.038Z,6.22
2018-05-10T15:05:22.475Z,5.68
2018-05-10T15:07:49.911Z,12.32
2018-05-10T15:10:17.347Z,3.95
2018-05-10T15:12:45.575Z,5.12
2018-05-10T15:15:14.605Z,4.70
2018-05-10T15:17:42.811Z,2.90
2018-05-10T15:20:10.247Z,3.45
2018-05-10T15:22:38.443Z,4.62
2018-05-10T15:25:05.934Z,2.10
2018-05-10T15:27:33.407Z,5.75
2018-05-10T15:30:00.855Z,3.87
2018-05-10T15:32:28.294Z,4.47
2018-05-10T15:34:55.723Z,3.65
2018-05-10T15:37:23.210Z,6.07
2018-05-10T15:39:50.680Z,5.00
2018-05-10T15:42:18.123Z,2.97
2018-05-10T15:44:45.555Z,6.03
2018-05-10T15:47:12.991Z,4.80
2018-05-10T15:49:41.227Z,3.10
2018-05-10T15:52:08.687Z,3.92
2018-05-10T15:54:36.124Z,4.62
2018-05-10T15:57:03.615Z,4.00
2018-05-10T15:59:31.105Z,3.83
2018-05-10T16:01:58.477Z,6.85
2018-05-10T16:04:26.061Z,4.00
2018-05-10T16:06:53.479Z,5.37
2018-05-10T16:09:21.682Z,8.18
2018-05-10T16:11:49.137Z,6.68
2018-05-10T16:14:16.681Z,10.90
2018-05-10T16:16:45.015Z,5.82
2018-05-10T16:19:12.823Z,5.50
2018-05-10T16:21:40.416Z,5.62
2018-05-10T16:24:07.844Z,5.10
2018-05-10T16:26:35.327Z,5.65
2018-05-10T16:29:02.786Z,7.43
2018-05-10T16:31:30.211Z,5.90
2018-05-10T16:33:58.411Z,6.47
2018-05-10T16:36:25.843Z,6.60
2018-05-10T16:38:54.077Z,6.50
2018-05-10T16:41:21.621Z,9.55
2018-05-10T16:43:49.271Z,5.55
2018-05-10T16:46:16.786Z,7.40
2018-05-10T16:48:44.304Z,7.53
2018-05-10T16:51:11.756Z,10.43
2018-05-10T16:53:39.553Z,8.18
2018-05-10T16:56:08.007Z,7.78
2018-05-10T16:58:36.492Z,7.32
2018-05-10T17:01:06.233Z,6.80
2018-05-10T17:03:34.460Z,8.43
2018-05-10T17:06:01.904Z,6.83
2018-05-10T17:08:29.387Z,5.57
2018-05-10T17:10:56.849Z,6.23
2018-05-10T17:13:24.290Z,7.77
2018-05-10T17:15:51.747Z,9.68
2018-05-10T17:18:19.198Z,9.37
2018-05-10T17:20:46.656Z,8.57
2018-05-10T17:23:14.094Z,8.30
2018-05-10T17:25:41.530Z,7.03
2018-05-10T17:28:09.063Z,6.20
2018-05-10T17:30:36.528Z,5.67
2018-05-10T17:33:04.248Z,6.23
2018-05-10T17:35:32.423Z,7.40
2018-05-10T17:37:59.916Z,5.77
2018-05-10T17:40:28.294Z,6.67
2018-05-10T17:42:55.751Z,6.57
2018-05-10T17:45:23.232Z,5.83
2018-05-10T17:47:50.648Z,7.40
2018-05-10T17:50:18.175Z,6.53
2018-05-10T17:52:45.711Z,7.33
2018-05-10T17:55:14.168Z,4.03
2018-05-10T17:57:42.278Z,5.30
2018-05-10T18:00:10.105Z,10.00
2018-05-10T18:02:37.580Z,7.90
2018-05-10T18:05:05.133Z,9.20
2018-05-10T18:07:33.491Z,4.93
2018-05-10T18:10:01.704Z,7.50
2018-05-10T18:12:29.217Z,7.27
2018-05-10T18:14:56.768Z,5.57
2018-05-10T18:17:24.189Z,5.93
2018-05-10T18:19:51.716Z,5.97
2018-05-10T18:22:19.947Z,6.87
2018-05-10T18:24:47.373Z,9.77
2018-05-10T18:27:14.815Z,4.90
2018-05-10T18:29:42.307Z,5.63
2018-05-10T18:32:09.801Z,5.03
2018-05-10T18:34:37.296Z,6.57
2018-05-10T18:37:04.721Z,9.90
2018-05-10T18:39:32.983Z,12.13
2018-05-10T18:42:00.404Z,7.47
2018-05-10T18:44:27.863Z,8.97
2018-05-10T18:46:55.323Z,11.70
2018-05-10T18:49:22.887Z,8.33
2018-05-10T18:51:50.322Z,6.27
2018-05-10T18:54:17.759Z,10.17
2018-05-10T18:56:45.269Z,11.13
2018-05-10T18:59:12.737Z,8.33
2018-05-10T19:01:40.271Z,11.70
2018-05-10T19:04:07.707Z,6.80
2018-05-10T19:06:35.157Z,8.43
2018-05-10T19:09:02.604Z,7.70
2018-05-10T19:11:30.797Z,6.27
2018-05-10T19:13:58.268Z,7.63
2018-05-10T19:16:25.703Z,9.40
2018-05-10T19:18:53.144Z,9.00
2018-05-10T19:21:21.461Z,10.20
2018-05-10T19:23:48.928Z,7.27
2018-05-10T19:26:16.323Z,5.50
2018-05-10T19:28:44.536Z,6.20
2018-05-10T19:31:12.004Z,9.43
2018-05-10T19:33:39.446Z,6.13
2018-05-10T19:36:06.889Z,5.87
2018-05-10T19:38:34.355Z,5.40
2018-05-10T19:41:01.802Z,11.33
2018-05-10T19:43:30.001Z,7.77
2018-05-10T19:45:57.418Z,9.60
2018-05-10T19:48:24.909Z,11.33
2018-05-10T19:50:52.360Z,5.13
2018-05-10T19:53:19.851Z,10.80
2018-05-10T19:55:47.303Z,6.23
2018-05-10T19:58:14.780Z,6.00
2018-05-10T20:00:42.254Z,6.47
2018-05-10T20:03:09.723Z,6.13
2018-05-10T20:05:37.187Z,8.80
2018-05-10T20:08:04.668Z,12.03
2018-05-10T20:10:32.146Z,11.10
2018-05-10T20:13:00.365Z,11.93
2018-05-10T20:15:27.827Z,7.27
2018-05-10T20:17:55.400Z,10.27
2018-05-10T20:20:23.022Z,9.57
2018-05-10T20:22:50.452Z,10.97
2018-05-10T20:25:18.767Z,6.10
2018-05-10T20:27:46.203Z,11.00
2018-05-10T20:30:13.714Z,6.43
2018-05-10T20:32:41.244Z,11.23
2018-05-10T20:35:08.675Z,11.27
2018-05-10T20:37:36.167Z,6.93
2018-05-10T20:40:03.595Z,7.47
2018-05-10T20:42:31.032Z,14.93
2018-05-10T20:44:59.276Z,10.23
2018-05-10T20:47:26.707Z,8.30
2018-05-10T20:49:54.146Z,9.40
2018-05-10T20:52:21.627Z,17.83
2018-05-10T20:54:49.067Z,7.83
2018-05-10T20:57:16.495Z,10.07
2018-05-10T20:59:43.933Z,9.38
2018-05-10T21:02:11.395Z,8.40
2018-05-10T21:04:41.352Z,11.77
2018-05-10T21:07:09.668Z,10.63
2018-05-10T21:09:37.213Z,12.10
2018-05-10T21:12:04.720Z,9.27
2018-05-10T21:14:32.252Z,11.33
2018-05-10T21:16:59.693Z,12.67
2018-05-10T21:19:27.145Z,13.80
2018-05-10T21:21:54.663Z,15.63
2018-05-10T21:24:22.107Z,11.73
2018-05-10T21:26:49.543Z,15.43
2018-05-10T21:29:16.983Z,12.53
2018-05-10T21:31:44.454Z,15.87
2018-05-10T21:34:11.888Z,13.50
2018-05-10T21:36:39.454Z,15.03
2018-05-10T21:39:06.874Z,12.23
2018-05-10T21:41:35.111Z,12.90
2018-05-10T21:44:02.754Z,19.60
2018-05-10T21:46:30.203Z,12.07
2018-05-10T21:48:57.611Z,17.43
2018-05-10T21:51:25.042Z,12.77
2018-05-10T21:53:52.592Z,16.73
2018-05-10T21:56:20.050Z,12.90
2018-05-10T21:58:47.516Z,17.05
2018-05-10T22:01:15.053Z,16.10
2018-05-10T22:03:42.476Z,13.37
2018-05-10T22:06:11.516Z,18.87
2018-05-10T22:08:38.962Z,11.50
2018-05-10T22:11:06.447Z,13.37
2018-05-10T22:13:33.891Z,11.43
2018-05-10T22:16:01.339Z,17.80
2018-05-10T22:18:28.811Z,10.23
2018-05-10T22:20:56.254Z,13.93
2018-05-10T22:23:23.721Z,19.50
2018-05-10T22:25:51.144Z,10.63
2018-05-10T22:28:18.623Z,13.43
2018-05-10T22:30:46.060Z,19.37
2018-05-10T22:33:13.553Z,14.23
2018-05-10T22:35:40.993Z,13.40
2018-05-10T22:38:08.415Z,15.80
2018-05-10T22:40:36.619Z,13.70
2018-05-10T22:43:04.083Z,21.53
2018-05-10T22:45:31.547Z,15.00
2018-05-10T22:47:59.027Z,16.33
2018-05-10T22:50:26.450Z,12.23
2018-05-10T22:52:53.916Z,14.67
2018-05-10T22:55:21.350Z,17.97
2018-05-10T22:57:48.797Z,13.90
2018-05-10T23:00:16.227Z,16.67
2018-05-10T23:02:43.742Z,19.80
2018-05-10T23:05:11.195Z,15.03
2018-05-10T23:07:38.647Z,9.90
2018-05-10T23:10:06.094Z,11.27
2018-05-10T23:12:33.519Z,19.63
2018-05-10T23:15:01.721Z,13.48
2018-05-10T23:17:29.171Z,13.90
2018-05-10T23:19:57.376Z,16.93
2018-05-10T23:22:24.843Z,14.03
2018-05-10T23:24:52.291Z,13.77
2018-05-10T23:27:19.751Z,14.90
2018-05-10T23:29:47.199Z,18.40
2018-05-10T23:32:14.627Z,13.53
2018-05-10T23:34:42.831Z,15.97
2018-05-10T23:37:10.269Z,13.20
2018-05-10T23:39:38.485Z,14.47
2018-05-10T23:42:05.933Z,14.73
2018-05-10T23:44:33.386Z,16.43
2018-05-10T23:47:00.856Z,14.87
2018-05-10T23:49:28.285Z,13.37
2018-05-10T23:51:55.722Z,13.40
2018-05-10T23:54:23.931Z,14.50
2018-05-10T23:56:51.397Z,15.97
2018-05-10T23:59:18.847Z,15.40
